sensor_id;sensor_type;location;lat;lon;timestamp;P1;durP1;ratioP1;P2;durP2;ratioP2
28682;SDS011;15862;43.062;25.626;2023-02-12T00:00:36;58.78;;;28.75;;
28682;SDS011;15862;43.062;25.626;2023-02-12T00:03:02;53.83;;;28.27;;
28682;SDS011;15862;43.062;25.626;2023-02-12T00:05:28;52.67;;;26.83;;
28682;SDS011;15862;43.062;25.626;2023-02-12T00:07:54;57.97;;;29.13;;
28682;SDS011;15862;43.062;25.626;2023-02-12T00:10:20;53.33;;;28.55;;
28682;SDS011;15862;43.062;25.626;2023-02-12T00:12:45;58.53;;;29.65;;
28682;SDS011;15862;43.062;25.626;2023-02-12T00:15:10;55.05;;;26.88;;
28682;SDS011;15862;43.062;25.626;2023-02-12T00:17:36;60.38;;;29.25;;
28682;SDS011;15862;43.062;25.626;2023-02-12T00:20:01;52.10;;;28.17;;
28682;SDS011;15862;43.062;25.626;2023-02-12T00:22:28;67.88;;;28.33;;
28682;SDS011;15862;43.062;25.626;2023-02-12T00:24:53;54.22;;;28.15;;
28682;SDS011;15862;43.062;25.626;2023-02-12T00:27:20;53.97;;;27.83;;
28682;SDS011;15862;43.062;25.626;2023-02-12T00:29:45;58.35;;;28.48;;
28682;SDS011;15862;43.062;25.626;2023-02-12T00:32:11;63.72;;;28.92;;
28682;SDS011;15862;43.062;25.626;2023-02-12T00:34:38;57.97;;;27.70;;
28682;SDS011;15862;43.062;25.626;2023-02-12T00:37:04;56.75;;;28.38;;
28682;SDS011;15862;43.062;25.626;2023-02-12T00:39:29;67.80;;;31.08;;
28682;SDS011;15862;43.062;25.626;2023-02-12T00:41:55;62.13;;;31.15;;
28682;SDS011;15862;43.062;25.626;2023-02-12T00:44:20;56.97;;;28.55;;
28682;SDS011;15862;43.062;25.626;2023-02-12T00:46:46;59.53;;;29.55;;
28682;SDS011;15862;43.062;25.626;2023-02-12T00:49:11;59.10;;;28.92;;
28682;SDS011;15862;43.062;25.626;2023-02-12T00:51:38;56.58;;;27.90;;
28682;SDS011;15862;43.062;25.626;2023-02-12T00:54:03;60.83;;;29.25;;
28682;SDS011;15862;43.062;25.626;2023-02-12T00:56:29;51.17;;;27.10;;
28682;SDS011;15862;43.062;25.626;2023-02-12T00:58:54;55.67;;;28.40;;
28682;SDS011;15862;43.062;25.626;2023-02-12T01:01:19;58.80;;;28.60;;
28682;SDS011;15862;43.062;25.626;2023-02-12T01:03:45;56.53;;;27.70;;
28682;SDS011;15862;43.062;25.626;2023-02-12T01:06:10;61.13;;;28.63;;
28682;SDS011;15862;43.062;25.626;2023-02-12T01:08:36;70.25;;;31.73;;
28682;SDS011;15862;43.062;25.626;2023-02-12T01:11:02;62.30;;;28.33;;
28682;SDS011;15862;43.062;25.626;2023-02-12T01:13:30;60.47;;;29.92;;
28682;SDS011;15862;43.062;25.626;2023-02-12T01:16:00;56.65;;;28.10;;
28682;SDS011;15862;43.062;25.626;2023-02-12T01:18:27;50.20;;;26.80;;
28682;SDS011;15862;43.062;25.626;2023-02-12T01:20:52;51.13;;;26.52;;
28682;SDS011;15862;43.062;25.626;2023-02-12T01:23:18;69.75;;;28.42;;
28682;SDS011;15862;43.062;25.626;2023-02-12T01:25:43;50.80;;;27.48;;
28682;SDS011;15862;43.062;25.626;2023-02-12T01:28:09;61.78;;;27.17;;
28682;SDS011;15862;43.062;25.626;2023-02-12T01:30:35;64.95;;;29.90;;
28682;SDS011;15862;43.062;25.626;2023-02-12T01:33:00;57.00;;;30.77;;
28682;SDS011;15862;43.062;25.626;2023-02-12T01:35:26;57.28;;;26.48;;
28682;SDS011;15862;43.062;25.626;2023-02-12T01:37:51;62.22;;;29.00;;
28682;SDS011;15862;43.062;25.626;2023-02-12T01:40:17;57.05;;;32.08;;
28682;SDS011;15862;43.062;25.626;2023-02-12T01:42:42;71.15;;;32.00;;
28682;SDS011;15862;43.062;25.626;2023-02-12T01:47:36;58.53;;;29.38;;
28682;SDS011;15862;43.062;25.626;2023-02-12T01:50:02;65.38;;;29.95;;
28682;SDS011;15862;43.062;25.626;2023-02-12T01:52:29;58.25;;;29.35;;
28682;SDS011;15862;43.062;25.626;2023-02-12T01:54:59;60.75;;;30.00;;
28682;SDS011;15862;43.062;25.626;2023-02-12T01:57:28;56.80;;;29.00;;
28682;SDS011;15862;43.062;25.626;2023-02-12T01:59:56;55.25;;;28.52;;
28682;SDS011;15862;43.062;25.626;2023-02-12T02:02:24;53.22;;;29.52;;
28682;SDS011;15862;43.062;25.626;2023-02-12T02:04:52;56.15;;;29.27;;
28682;SDS011;15862;43.062;25.626;2023-02-12T02:07:21;58.85;;;30.60;;
28682;SDS011;15862;43.062;25.626;2023-02-12T02:09:46;61.05;;;29.38;;
28682;SDS011;15862;43.062;25.626;2023-02-12T02:12:11;66.72;;;31.88;;
28682;SDS011;15862;43.062;25.626;2023-02-12T02:14:57;62.55;;;31.42;;
28682;SDS011;15862;43.062;25.626;2023-02-12T02:31:12;64.50;;;31.38;;
28682;SDS011;15862;43.062;25.626;2023-02-12T02:33:51;61.38;;;29.52;;
28682;SDS011;15862;43.062;25.626;2023-02-12T02:36:31;70.43;;;31.35;;
28682;SDS011;15862;43.062;25.626;2023-02-12T02:39:05;57.42;;;30.15;;
28682;SDS011;15862;43.062;25.626;2023-02-12T02:44:12;64.97;;;31.10;;
28682;SDS011;15862;43.062;25.626;2023-02-12T02:46:45;63.03;;;30.70;;
28682;SDS011;15862;43.062;25.626;2023-02-12T02:49:14;59.72;;;30.40;;
28682;SDS011;15862;43.062;25.626;2023-02-12T02:51:44;62.60;;;31.13;;
28682;SDS011;15862;43.062;25.626;2023-02-12T02:57:44;61.90;;;29.77;;
28682;SDS011;15862;43.062;25.626;2023-02-12T02:59:54;59.72;;;30.50;;
28682;SDS011;15862;43.062;25.626;2023-02-12T03:02:27;58.95;;;30.63;;
28682;SDS011;15862;43.062;25.626;2023-02-12T03:05:09;61.65;;;30.88;;
28682;SDS011;15862;43.062;25.626;2023-02-12T03:07:45;56.38;;;29.42;;
28682;SDS011;15862;43.062;25.626;2023-02-12T03:10:38;67.35;;;31.75;;
28682;SDS011;15862;43.062;25.626;2023-02-12T03:13:09;58.05;;;30.80;;
28682;SDS011;15862;43.062;25.626;2023-02-12T03:18:05;61.25;;;32.03;;
28682;SDS011;15862;43.062;25.626;2023-02-12T03:20:57;64.40;;;30.13;;
28682;SDS011;15862;43.062;25.626;2023-02-12T03:23:36;73.30;;;31.92;;
28682;SDS011;15862;43.062;25.626;2023-02-12T03:26:09;69.22;;;30.60;;
28682;SDS011;15862;43.062;25.626;2023-02-12T03:28:42;55.58;;;28.52;;
28682;SDS011;15862;43.062;25.626;2023-02-12T03:31:09;63.13;;;31.85;;
28682;SDS011;15862;43.062;25.626;2023-02-12T03:36:25;69.82;;;31.98;;
28682;SDS011;15862;43.062;25.626;2023-02-12T03:42:05;69.50;;;32.55;;
28682;SDS011;15862;43.062;25.626;2023-02-12T03:50:01;66.97;;;31.40;;
28682;SDS011;15862;43.062;25.626;2023-02-12T03:52:29;62.20;;;32.33;;
28682;SDS011;15862;43.062;25.626;2023-02-12T03:54:55;64.40;;;31.73;;
28682;SDS011;15862;43.062;25.626;2023-02-12T03:57:21;61.08;;;31.17;;
28682;SDS011;15862;43.062;25.626;2023-02-12T03:59:54;63.85;;;32.05;;
28682;SDS011;15862;43.062;25.626;2023-02-12T04:02:21;65.90;;;35.03;;
28682;SDS011;15862;43.062;25.626;2023-02-12T04:04:46;63.47;;;32.53;;
28682;SDS011;15862;43.062;25.626;2023-02-12T04:07:12;63.35;;;32.65;;
28682;SDS011;15862;43.062;25.626;2023-02-12T04:09:39;70.32;;;34.88;;
28682;SDS011;15862;43.062;25.626;2023-02-12T04:25:20;61.97;;;31.30;;
28682;SDS011;15862;43.062;25.626;2023-02-12T04:27:55;75.28;;;34.97;;
28682;SDS011;15862;43.062;25.626;2023-02-12T04:30:32;65.38;;;35.35;;
28682;SDS011;15862;43.062;25.626;2023-02-12T04:33:02;69.25;;;34.40;;
28682;SDS011;15862;43.062;25.626;2023-02-12T04:35:34;73.57;;;35.47;;
28682;SDS011;15862;43.062;25.626;2023-02-12T04:40:32;75.82;;;34.72;;
28682;SDS011;15862;43.062;25.626;2023-02-12T04:42:58;63.75;;;34.92;;
28682;SDS011;15862;43.062;25.626;2023-02-12T04:45:26;68.45;;;34.17;;
28682;SDS011;15862;43.062;25.626;2023-02-12T04:47:53;71.63;;;35.60;;
28682;SDS011;15862;43.062;25.626;2023-02-12T04:50:19;72.28;;;35.08;;
28682;SDS011;15862;43.062;25.626;2023-02-12T04:52:45;62.13;;;34.55;;
28682;SDS011;15862;43.062;25.626;2023-02-12T04:55:11;69.88;;;35.65;;
28682;SDS011;15862;43.062;25.626;2023-02-12T04:57:36;63.47;;;34.63;;
28682;SDS011;15862;43.062;25.626;2023-02-12T05:00:03;65.07;;;35.22;;
28682;SDS011;15862;43.062;25.626;2023-02-12T05:02:29;65.78;;;34.25;;
28682;SDS011;15862;43.062;25.626;2023-02-12T05:04:55;67.40;;;34.60;;
28682;SDS011;15862;43.062;25.626;2023-02-12T05:07:20;68.22;;;33.90;;
28682;SDS011;15862;43.062;25.626;2023-02-12T05:09:46;71.82;;;34.53;;
28682;SDS011;15862;43.062;25.626;2023-02-12T05:12:11;66.25;;;34.00;;
28682;SDS011;15862;43.062;25.626;2023-02-12T05:14:37;68.75;;;33.05;;
28682;SDS011;15862;43.062;25.626;2023-02-12T05:17:02;80.95;;;34.13;;
28682;SDS011;15862;43.062;25.626;2023-02-12T05:19:27;88.55;;;36.67;;
28682;SDS011;15862;43.062;25.626;2023-02-12T05:21:53;65.07;;;34.45;;
28682;SDS011;15862;43.062;25.626;2023-02-12T05:24:18;74.07;;;34.67;;
28682;SDS011;15862;43.062;25.626;2023-02-12T05:26:43;68.30;;;33.60;;
28682;SDS011;15862;43.062;25.626;2023-02-12T05:29:09;55.95;;;31.15;;
28682;SDS011;15862;43.062;25.626;2023-02-12T05:31:34;62.80;;;33.92;;
28682;SDS011;15862;43.062;25.626;2023-02-12T05:34:00;65.45;;;34.70;;
28682;SDS011;15862;43.062;25.626;2023-02-12T05:36:26;77.63;;;37.33;;
28682;SDS011;15862;43.062;25.626;2023-02-12T05:38:52;89.57;;;36.42;;
28682;SDS011;15862;43.062;25.626;2023-02-12T05:41:21;81.50;;;39.70;;
28682;SDS011;15862;43.062;25.626;2023-02-12T05:43:48;67.47;;;37.20;;
28682;SDS011;15862;43.062;25.626;2023-02-12T05:46:14;67.07;;;36.45;;
28682;SDS011;15862;43.062;25.626;2023-02-12T05:48:41;77.93;;;36.65;;
28682;SDS011;15862;43.062;25.626;2023-02-12T05:51:07;80.50;;;37.88;;
28682;SDS011;15862;43.062;25.626;2023-02-12T05:53:35;71.13;;;35.63;;
28682;SDS011;15862;43.062;25.626;2023-02-12T05:56:08;70.90;;;37.22;;
28682;SDS011;15862;43.062;25.626;2023-02-12T05:58:39;73.85;;;34.08;;
28682;SDS011;15862;43.062;25.626;2023-02-12T06:01:09;73.93;;;35.95;;
28682;SDS011;15862;43.062;25.626;2023-02-12T06:03:36;71.65;;;37.38;;
28682;SDS011;15862;43.062;25.626;2023-02-12T06:06:02;73.18;;;36.28;;
28682;SDS011;15862;43.062;25.626;2023-02-12T06:08:27;70.68;;;37.53;;
28682;SDS011;15862;43.062;25.626;2023-02-12T06:10:54;70.47;;;33.60;;
28682;SDS011;15862;43.062;25.626;2023-02-12T06:13:23;68.80;;;35.83;;
28682;SDS011;15862;43.062;25.626;2023-02-12T06:15:49;70.25;;;37.83;;
28682;SDS011;15862;43.062;25.626;2023-02-12T06:18:14;76.15;;;39.80;;
28682;SDS011;15862;43.062;25.626;2023-02-12T06:20:40;81.60;;;39.40;;
28682;SDS011;15862;43.062;25.626;2023-02-12T06:23:05;75.88;;;38.85;;
28682;SDS011;15862;43.062;25.626;2023-02-12T06:25:30;74.80;;;39.85;;
28682;SDS011;15862;43.062;25.626;2023-02-12T06:27:56;81.68;;;37.15;;
28682;SDS011;15862;43.062;25.626;2023-02-12T06:30:21;76.72;;;39.15;;
28682;SDS011;15862;43.062;25.626;2023-02-12T06:32:49;82.68;;;37.10;;
28682;SDS011;15862;43.062;25.626;2023-02-12T06:35:15;72.18;;;36.13;;
28682;SDS011;15862;43.062;25.626;2023-02-12T06:37:40;75.35;;;38.95;;
28682;SDS011;15862;43.062;25.626;2023-02-12T06:40:06;77.68;;;38.05;;
28682;SDS011;15862;43.062;25.626;2023-02-12T06:42:32;78.53;;;39.00;;
28682;SDS011;15862;43.062;25.626;2023-02-12T06:44:57;86.93;;;39.25;;
28682;SDS011;15862;43.062;25.626;2023-02-12T06:47:23;74.32;;;37.22;;
28682;SDS011;15862;43.062;25.626;2023-02-12T06:49:48;82.07;;;38.30;;
28682;SDS011;15862;43.062;25.626;2023-02-12T06:52:13;84.13;;;36.88;;
28682;SDS011;15862;43.062;25.626;2023-02-12T06:54:39;67.28;;;37.45;;
28682;SDS011;15862;43.062;25.626;2023-02-12T06:57:04;67.45;;;37.83;;
28682;SDS011;15862;43.062;25.626;2023-02-12T06:59:30;69.63;;;36.42;;
28682;SDS011;15862;43.062;25.626;2023-02-12T07:01:55;66.65;;;36.53;;
28682;SDS011;15862;43.062;25.626;2023-02-12T07:04:21;78.50;;;37.40;;
28682;SDS011;15862;43.062;25.626;2023-02-12T07:06:46;81.72;;;37.83;;
28682;SDS011;15862;43.062;25.626;2023-02-12T07:09:12;75.72;;;37.13;;
28682;SDS011;15862;43.062;25.626;2023-02-12T07:11:38;108.80;;;40.75;;
28682;SDS011;15862;43.062;25.626;2023-02-12T07:14:04;74.18;;;39.15;;
28682;SDS011;15862;43.062;25.626;2023-02-12T07:16:29;79.97;;;41.78;;
28682;SDS011;15862;43.062;25.626;2023-02-12T07:18:55;93.22;;;41.13;;
28682;SDS011;15862;43.062;25.626;2023-02-12T07:21:20;85.13;;;43.90;;
28682;SDS011;15862;43.062;25.626;2023-02-12T07:23:47;98.40;;;44.17;;
28682;SDS011;15862;43.062;25.626;2023-02-12T07:26:13;88.05;;;43.88;;
28682;SDS011;15862;43.062;25.626;2023-02-12T07:28:39;90.57;;;40.88;;
28682;SDS011;15862;43.062;25.626;2023-02-12T07:31:06;102.13;;;43.30;;
28682;SDS011;15862;43.062;25.626;2023-02-12T07:33:37;91.63;;;43.97;;
28682;SDS011;15862;43.062;25.626;2023-02-12T07:36:04;84.97;;;44.72;;
28682;SDS011;15862;43.062;25.626;2023-02-12T07:38:31;86.78;;;44.63;;
28682;SDS011;15862;43.062;25.626;2023-02-12T07:41:13;85.20;;;43.17;;
28682;SDS011;15862;43.062;25.626;2023-02-12T07:43:41;82.75;;;42.40;;
28682;SDS011;15862;43.062;25.626;2023-02-12T07:46:09;93.15;;;44.90;;
28682;SDS011;15862;43.062;25.626;2023-02-12T07:48:41;99.07;;;43.35;;
28682;SDS011;15862;43.062;25.626;2023-02-12T07:51:08;82.68;;;41.72;;
28682;SDS011;15862;43.062;25.626;2023-02-12T07:53:36;79.00;;;43.03;;
28682;SDS011;15862;43.062;25.626;2023-02-12T07:56:06;77.50;;;44.10;;
28682;SDS011;15862;43.062;25.626;2023-02-12T07:58:39;83.88;;;43.88;;
28682;SDS011;15862;43.062;25.626;2023-02-12T08:01:16;68.70;;;40.00;;
28682;SDS011;15862;43.062;25.626;2023-02-12T08:03:50;67.35;;;39.35;;
28682;SDS011;15862;43.062;25.626;2023-02-12T08:06:18;76.30;;;40.88;;
28682;SDS011;15862;43.062;25.626;2023-02-12T08:08:52;89.90;;;42.53;;
28682;SDS011;15862;43.062;25.626;2023-02-12T08:11:19;76.60;;;42.40;;
28682;SDS011;15862;43.062;25.626;2023-02-12T08:13:44;80.43;;;42.78;;
28682;SDS011;15862;43.062;25.626;2023-02-12T08:16:11;71.18;;;42.15;;
28682;SDS011;15862;43.062;25.626;2023-02-12T08:18:38;77.80;;;43.75;;
28682;SDS011;15862;43.062;25.626;2023-02-12T08:21:04;92.57;;;51.10;;
28682;SDS011;15862;43.062;25.626;2023-02-12T08:23:32;85.97;;;49.65;;
28682;SDS011;15862;43.062;25.626;2023-02-12T08:28:46;98.88;;;51.17;;
28682;SDS011;15862;43.062;25.626;2023-02-12T08:31:18;95.90;;;49.10;;
28682;SDS011;15862;43.062;25.626;2023-02-12T08:33:45;95.68;;;50.92;;
28682;SDS011;15862;43.062;25.626;2023-02-12T08:36:13;99.53;;;55.30;;
28682;SDS011;15862;43.062;25.626;2023-02-12T08:38:41;104.88;;;54.08;;
28682;SDS011;15862;43.062;25.626;2023-02-12T08:41:12;108.55;;;60.70;;
28682;SDS011;15862;43.062;25.626;2023-02-12T08:43:45;87.78;;;49.58;;
28682;SDS011;15862;43.062;25.626;2023-02-12T08:46:12;86.30;;;46.35;;
28682;SDS011;15862;43.062;25.626;2023-02-12T08:48:40;74.57;;;41.85;;
28682;SDS011;15862;43.062;25.626;2023-02-12T08:51:13;81.35;;;47.15;;
28682;SDS011;15862;43.062;25.626;2023-02-12T08:53:41;82.95;;;50.45;;
28682;SDS011;15862;43.062;25.626;2023-02-12T08:56:09;83.10;;;46.78;;
28682;SDS011;15862;43.062;25.626;2023-02-12T08:58:35;76.55;;;44.30;;
28682;SDS011;15862;43.062;25.626;2023-02-12T09:01:02;73.45;;;43.00;;
28682;SDS011;15862;43.062;25.626;2023-02-12T09:03:28;70.47;;;42.83;;
28682;SDS011;15862;43.062;25.626;2023-02-12T09:05:53;64.13;;;37.13;;
28682;SDS011;15862;43.062;25.626;2023-02-12T09:08:19;63.05;;;38.22;;
28682;SDS011;15862;43.062;25.626;2023-02-12T09:10:45;66.38;;;39.70;;
28682;SDS011;15862;43.062;25.626;2023-02-12T09:13:11;46.58;;;26.20;;
28682;SDS011;15862;43.062;25.626;2023-02-12T09:15:39;53.22;;;28.38;;
28682;SDS011;15862;43.062;25.626;2023-02-12T09:18:07;47.83;;;26.60;;
28682;SDS011;15862;43.062;25.626;2023-02-12T09:20:33;53.13;;;30.08;;
28682;SDS011;15862;43.062;25.626;2023-02-12T09:23:02;49.08;;;28.88;;
28682;SDS011;15862;43.062;25.626;2023-02-12T09:25:28;41.42;;;24.52;;
28682;SDS011;15862;43.062;25.626;2023-02-12T09:27:54;54.35;;;29.73;;
28682;SDS011;15862;43.062;25.626;2023-02-12T09:30:20;47.20;;;26.65;;
28682;SDS011;15862;43.062;25.626;2023-02-12T09:32:45;43.22;;;26.70;;
28682;SDS011;15862;43.062;25.626;2023-02-12T09:35:11;40.45;;;26.15;;
28682;SDS011;15862;43.062;25.626;2023-02-12T09:37:37;39.75;;;24.33;;
28682;SDS011;15862;43.062;25.626;2023-02-12T09:40:05;41.20;;;24.13;;
28682;SDS011;15862;43.062;25.626;2023-02-12T09:43:15;31.20;;;18.88;;
28682;SDS011;15862;43.062;25.626;2023-02-12T09:45:27;29.52;;;17.23;;
28682;SDS011;15862;43.062;25.626;2023-02-12T09:50:50;28.95;;;16.33;;
28682;SDS011;15862;43.062;25.626;2023-02-12T09:53:19;34.83;;;16.80;;
28682;SDS011;15862;43.062;25.626;2023-02-12T09:55:47;32.90;;;19.20;;
28682;SDS011;15862;43.062;25.626;2023-02-12T09:58:13;37.67;;;19.83;;
28682;SDS011;15862;43.062;25.626;2023-02-12T10:00:44;33.72;;;18.48;;
28682;SDS011;15862;43.062;25.626;2023-02-12T10:03:11;28.60;;;16.10;;
28682;SDS011;15862;43.062;25.626;2023-02-12T10:05:42;31.60;;;17.58;;
28682;SDS011;15862;43.062;25.626;2023-02-12T10:13:45;31.08;;;16.70;;
28682;SDS011;15862;43.062;25.626;2023-02-12T10:27:48;32.25;;;19.90;;
28682;SDS011;15862;43.062;25.626;2023-02-12T10:30:50;32.67;;;18.65;;
28682;SDS011;15862;43.062;25.626;2023-02-12T10:33:19;32.05;;;19.40;;
28682;SDS011;15862;43.062;25.626;2023-02-12T10:35:49;35.33;;;19.60;;
28682;SDS011;15862;43.062;25.626;2023-02-12T10:38:20;34.58;;;20.17;;
28682;SDS011;15862;43.062;25.626;2023-02-12T10:40:51;29.23;;;18.95;;
28682;SDS011;15862;43.062;25.626;2023-02-12T10:43:18;32.55;;;19.20;;
28682;SDS011;15862;43.062;25.626;2023-02-12T10:45:44;31.05;;;18.38;;
28682;SDS011;15862;43.062;25.626;2023-02-12T10:48:17;32.33;;;18.60;;
28682;SDS011;15862;43.062;25.626;2023-02-12T10:53:22;33.95;;;18.75;;
28682;SDS011;15862;43.062;25.626;2023-02-12T10:55:49;28.63;;;18.88;;
28682;SDS011;15862;43.062;25.626;2023-02-12T10:58:52;31.42;;;18.77;;
28682;SDS011;15862;43.062;25.626;2023-02-12T11:01:19;31.88;;;18.42;;
28682;SDS011;15862;43.062;25.626;2023-02-12T11:03:50;34.00;;;18.75;;
28682;SDS011;15862;43.062;25.626;2023-02-12T11:06:20;34.72;;;20.17;;
28682;SDS011;15862;43.062;25.626;2023-02-12T11:08:52;32.10;;;19.63;;
28682;SDS011;15862;43.062;25.626;2023-02-12T11:16:27;34.60;;;19.88;;
28682;SDS011;15862;43.062;25.626;2023-02-12T11:18:57;32.83;;;19.55;;
28682;SDS011;15862;43.062;25.626;2023-02-12T11:21:28;33.97;;;18.92;;
28682;SDS011;15862;43.062;25.626;2023-02-12T11:23:54;33.60;;;20.15;;
28682;SDS011;15862;43.062;25.626;2023-02-12T11:32:00;33.70;;;20.77;;
28682;SDS011;15862;43.062;25.626;2023-02-12T11:34:28;36.35;;;22.27;;
28682;SDS011;15862;43.062;25.626;2023-02-12T11:36:54;41.67;;;22.77;;
28682;SDS011;15862;43.062;25.626;2023-02-12T11:39:23;32.05;;;20.75;;
28682;SDS011;15862;43.062;25.626;2023-02-12T11:41:55;31.13;;;21.75;;
28682;SDS011;15862;43.062;25.626;2023-02-12T11:44:29;33.33;;;22.92;;
28682;SDS011;15862;43.062;25.626;2023-02-12T11:47:02;33.97;;;21.95;;
28682;SDS011;15862;43.062;25.626;2023-02-12T11:49:33;31.25;;;21.13;;
28682;SDS011;15862;43.062;25.626;2023-02-12T11:52:03;33.08;;;21.20;;
28682;SDS011;15862;43.062;25.626;2023-02-12T11:54:31;37.20;;;22.27;;
28682;SDS011;15862;43.062;25.626;2023-02-12T11:57:02;36.50;;;23.67;;
28682;SDS011;15862;43.062;25.626;2023-02-12T12:00:02;35.75;;;21.45;;
28682;SDS011;15862;43.062;25.626;2023-02-12T12:02:28;41.22;;;21.35;;
28682;SDS011;15862;43.062;25.626;2023-02-12T12:05:07;41.35;;;18.80;;
28682;SDS011;15862;43.062;25.626;2023-02-12T12:07:38;35.17;;;20.88;;
28682;SDS011;15862;43.062;25.626;2023-02-12T12:15:14;41.45;;;21.67;;
28682;SDS011;15862;43.062;25.626;2023-02-12T12:18:05;37.15;;;20.85;;
28682;SDS011;15862;43.062;25.626;2023-02-12T12:23:53;35.72;;;22.60;;
28682;SDS011;15862;43.062;25.626;2023-02-12T12:26:24;37.03;;;22.55;;
28682;SDS011;15862;43.062;25.626;2023-02-12T12:31:34;33.65;;;21.08;;
28682;SDS011;15862;43.062;25.626;2023-02-12T12:34:10;37.72;;;20.83;;
28682;SDS011;15862;43.062;25.626;2023-02-12T12:39:39;36.63;;;21.30;;
28682;SDS011;15862;43.062;25.626;2023-02-12T12:48:21;39.70;;;22.35;;
28682;SDS011;15862;43.062;25.626;2023-02-12T12:56:38;38.38;;;21.23;;
28682;SDS011;15862;43.062;25.626;2023-02-12T13:27:19;37.72;;;21.80;;
28682;SDS011;15862;43.062;25.626;2023-02-12T13:29:52;42.78;;;22.35;;
28682;SDS011;15862;43.062;25.626;2023-02-12T13:32:29;40.35;;;22.88;;
28682;SDS011;15862;43.062;25.626;2023-02-12T13:35:00;38.03;;;21.08;;
28682;SDS011;15862;43.062;25.626;2023-02-12T13:37:40;42.92;;;23.17;;
28682;SDS011;15862;43.062;25.626;2023-02-12T13:40:31;38.10;;;21.35;;
28682;SDS011;15862;43.062;25.626;2023-02-12T13:48:39;41.80;;;22.67;;
28682;SDS011;15862;43.062;25.626;2023-02-12T13:51:20;40.85;;;23.50;;
28682;SDS011;15862;43.062;25.626;2023-02-12T13:54:00;41.75;;;21.80;;
28682;SDS011;15862;43.062;25.626;2023-02-12T13:56:48;39.60;;;22.33;;
28682;SDS011;15862;43.062;25.626;2023-02-12T14:01:57;39.42;;;23.38;;
28682;SDS011;15862;43.062;25.626;2023-02-12T14:10:00;42.10;;;24.10;;
28682;SDS011;15862;43.062;25.626;2023-02-12T14:30:33;45.38;;;25.85;;
28682;SDS011;15862;43.062;25.626;2023-02-12T14:35:48;56.45;;;29.83;;
28682;SDS011;15862;43.062;25.626;2023-02-12T14:57:27;56.17;;;29.02;;
28682;SDS011;15862;43.062;25.626;2023-02-12T15:02:56;58.20;;;30.85;;
28682;SDS011;15862;43.062;25.626;2023-02-12T15:05:28;57.95;;;30.33;;
28682;SDS011;15862;43.062;25.626;2023-02-12T15:10:31;54.55;;;27.88;;
28682;SDS011;15862;43.062;25.626;2023-02-12T15:13:23;54.33;;;29.90;;
28682;SDS011;15862;43.062;25.626;2023-02-12T15:16:15;52.95;;;30.17;;
28682;SDS011;15862;43.062;25.626;2023-02-12T15:21:23;64.60;;;32.20;;
28682;SDS011;15862;43.062;25.626;2023-02-12T15:24:07;73.88;;;34.42;;
28682;SDS011;15862;43.062;25.626;2023-02-12T15:26:41;69.80;;;31.05;;
28682;SDS011;15862;43.062;25.626;2023-02-12T15:29:18;59.67;;;32.38;;
28682;SDS011;15862;43.062;25.626;2023-02-12T15:32:05;61.92;;;33.42;;
28682;SDS011;15862;43.062;25.626;2023-02-12T15:34:32;61.50;;;31.55;;
28682;SDS011;15862;43.062;25.626;2023-02-12T15:37:03;59.72;;;31.38;;
28682;SDS011;15862;43.062;25.626;2023-02-12T15:39:36;59.90;;;32.88;;
28682;SDS011;15862;43.062;25.626;2023-02-12T15:44:51;59.38;;;29.98;;
28682;SDS011;15862;43.062;25.626;2023-02-12T15:47:26;65.30;;;32.05;;
28682;SDS011;15862;43.062;25.626;2023-02-12T15:49:51;67.70;;;33.95;;
28682;SDS011;15862;43.062;25.626;2023-02-12T15:52:25;65.63;;;34.30;;
28682;SDS011;15862;43.062;25.626;2023-02-12T15:54:58;64.68;;;32.05;;
28682;SDS011;15862;43.062;25.626;2023-02-12T15:57:24;80.65;;;34.45;;
28682;SDS011;15862;43.062;25.626;2023-02-12T15:59:51;80.05;;;34.28;;
28682;SDS011;15862;43.062;25.626;2023-02-12T16:02:24;64.55;;;31.77;;
28682;SDS011;15862;43.062;25.626;2023-02-12T16:04:53;54.92;;;28.80;;
28682;SDS011;15862;43.062;25.626;2023-02-12T16:07:19;53.92;;;29.92;;
28682;SDS011;15862;43.062;25.626;2023-02-12T16:09:47;59.58;;;28.63;;
28682;SDS011;15862;43.062;25.626;2023-02-12T16:12:14;60.63;;;31.20;;
28682;SDS011;15862;43.062;25.626;2023-02-12T16:14:47;58.55;;;28.30;;
28682;SDS011;15862;43.062;25.626;2023-02-12T16:20:31;67.22;;;31.05;;
28682;SDS011;15862;43.062;25.626;2023-02-12T16:25:14;62.45;;;32.53;;
28682;SDS011;15862;43.062;25.626;2023-02-12T16:27:40;67.18;;;32.08;;
28682;SDS011;15862;43.062;25.626;2023-02-12T16:32:49;56.83;;;30.70;;
28682;SDS011;15862;43.062;25.626;2023-02-12T16:37:40;58.22;;;29.33;;
28682;SDS011;15862;43.062;25.626;2023-02-12T16:40:09;60.78;;;30.88;;
28682;SDS011;15862;43.062;25.626;2023-02-12T16:42:38;57.33;;;29.27;;
28682;SDS011;15862;43.062;25.626;2023-02-12T16:47:48;53.28;;;28.10;;
28682;SDS011;15862;43.062;25.626;2023-02-12T16:50:15;56.67;;;27.20;;
28682;SDS011;15862;43.062;25.626;2023-02-12T16:52:42;57.72;;;28.73;;
28682;SDS011;15862;43.062;25.626;2023-02-12T16:55:12;52.88;;;28.67;;
28682;SDS011;15862;43.062;25.626;2023-02-12T16:57:39;56.22;;;29.65;;
28682;SDS011;15862;43.062;25.626;2023-02-12T17:00:05;54.15;;;29.52;;
28682;SDS011;15862;43.062;25.626;2023-02-12T17:02:32;52.45;;;28.27;;
28682;SDS011;15862;43.062;25.626;2023-02-12T17:05:00;58.70;;;30.30;;
28682;SDS011;15862;43.062;25.626;2023-02-12T17:07:29;59.65;;;29.95;;
28682;SDS011;15862;43.062;25.626;2023-02-12T17:09:55;62.30;;;30.27;;
28682;SDS011;15862;43.062;25.626;2023-02-12T17:12:21;60.28;;;31.17;;
28682;SDS011;15862;43.062;25.626;2023-02-12T17:14:46;60.75;;;29.80;;
28682;SDS011;15862;43.062;25.626;2023-02-12T17:17:12;56.63;;;28.08;;
28682;SDS011;15862;43.062;25.626;2023-02-12T17:19:37;48.53;;;27.88;;
28682;SDS011;15862;43.062;25.626;2023-02-12T17:22:03;51.85;;;29.05;;
28682;SDS011;15862;43.062;25.626;2023-02-12T17:24:30;54.85;;;27.60;;
28682;SDS011;15862;43.062;25.626;2023-02-12T17:26:58;53.15;;;28.98;;
28682;SDS011;15862;43.062;25.626;2023-02-12T17:29:24;59.13;;;29.92;;
28682;SDS011;15862;43.062;25.626;2023-02-12T17:31:50;63.03;;;30.00;;
28682;SDS011;15862;43.062;25.626;2023-02-12T17:34:18;65.68;;;29.95;;
28682;SDS011;15862;43.062;25.626;2023-02-12T17:36:44;59.80;;;28.33;;
28682;SDS011;15862;43.062;25.626;2023-02-12T17:39:10;53.45;;;28.02;;
28682;SDS011;15862;43.062;25.626;2023-02-12T17:41:37;53.42;;;27.67;;
28682;SDS011;15862;43.062;25.626;2023-02-12T17:44:04;51.15;;;26.42;;
28682;SDS011;15862;43.062;25.626;2023-02-12T17:46:30;60.30;;;30.52;;
28682;SDS011;15862;43.062;25.626;2023-02-12T17:48:56;64.78;;;30.77;;
28682;SDS011;15862;43.062;25.626;2023-02-12T17:51:22;63.58;;;27.83;;
28682;SDS011;15862;43.062;25.626;2023-02-12T17:53:48;60.33;;;30.20;;
28682;SDS011;15862;43.062;25.626;2023-02-12T17:56:17;72.72;;;34.13;;
28682;SDS011;15862;43.062;25.626;2023-02-12T17:58:45;83.53;;;35.95;;